Greenwd, Indiana
Current Conditions -  °F | °C
As of 7:54 PM on Tuesday 21 Oct 2014 (Local Time) from KIND Reporting Station
Scattered Clouds Scattered Clouds  
Wind Chill: 45°   Ceiling: Unl
Heat Index: 48°   Visibility: 10mi
Dew Point: 41°   Wind: 6mph
Humidity: 77%   Direction: 310°NW
Pressure: 30.14"   Gusts: NA
Location:  39.5883°N, 86.07°W
Report Text: KIND 212354Z 31005KT 10SM SCT060 09/05 A3014 RMK AO2 SLP208 T00890050 10139 20089 53014
Loading
Personal Weather Stations






























Interactive Weather Map
Tropical Storm Tracking
New forecast layout! Learn more

10-Day Weather Forecast

Advertisements
Track Severe Weather on mobile